Terminal Aerodrome Forecast
Issued by NWS

Home | Current Version | Previous Version | Text Only | Print | Product List | Glossary On
Versions: 1 2 3 4 5 6 7 8 9 10 11 12 13 14 15 16 17 18 19 20
000
FTUS41 KCAR 311733
TAFBHB
TAF
KBHB 311733Z 3118/0118 34027KT 1SM -SN BLSN OVC012
     FM311900 34028KT 2SM -SN BLSN OVC015
     FM312200 33025KT 6SM BLSN OVC015
     FM312300 33024KT 6SM BLSN OVC025
     FM010100 33021KT 6SM BLSN BKN040
     FM010300 33018KT 6SM BLSN SCT250
      AMD LTD TO CLD VIS AND WIND=

USA.gov is the U.S. government's official web portal to all federal, state and local government web resources and services.